createdAt,value
2018-10-19T00:01:17.604Z,67.27
2018-10-19T00:03:46.686Z,67.64
2018-10-19T00:06:15.822Z,67.31
2018-10-19T00:08:44.906Z,67.46
2018-10-19T00:11:14.049Z,67.37
2018-10-19T00:13:43.119Z,67.65
2018-10-19T00:16:12.162Z,67.65
2018-10-19T00:18:41.316Z,67.67
2018-10-19T00:21:10.466Z,67.45
2018-10-19T00:23:39.501Z,67.71
2018-10-19T00:26:08.590Z,67.88
2018-10-19T00:28:37.724Z,68.05
2018-10-19T00:31:06.786Z,67.89
2018-10-19T00:33:36.089Z,68.06
2018-10-19T00:36:05.555Z,67.88
2018-10-19T00:38:34.625Z,68.16
2018-10-19T00:41:03.729Z,68.36
2018-10-19T00:43:32.788Z,68.55
2018-10-19T00:46:01.863Z,68.60
2018-10-19T00:48:30.965Z,68.93
2018-10-19T00:51:00.081Z,68.79
2018-10-19T00:53:29.197Z,68.78
2018-10-19T00:55:58.268Z,68.70
2018-10-19T00:58:27.477Z,68.95
2018-10-19T01:00:56.545Z,69.08
2018-10-19T01:03:25.670Z,69.26
2018-10-19T01:05:54.735Z,69.26
2018-10-19T01:08:23.835Z,69.22
2018-10-19T01:10:52.951Z,69.34
2018-10-19T01:13:22.041Z,69.05
2018-10-19T01:15:51.201Z,69.11
2018-10-19T01:18:20.245Z,69.15
2018-10-19T01:20:49.341Z,69.26
2018-10-19T01:23:18.458Z,69.44
2018-10-19T01:25:47.558Z,69.67
2018-10-19T01:28:16.754Z,69.96
2018-10-19T01:30:45.846Z,70.04
2018-10-19T01:33:15.039Z,70.31
2018-10-19T01:35:44.034Z,69.98
2018-10-19T01:38:13.124Z,70.19
2018-10-19T01:40:42.208Z,70.05
2018-10-19T01:43:11.293Z,70.36
2018-10-19T01:45:44.439Z,70.25
2018-10-19T01:48:13.545Z,70.34
2018-10-19T01:50:42.594Z,70.79
2018-10-19T01:53:11.702Z,70.64
2018-10-19T01:55:40.769Z,70.80
2018-10-19T01:58:09.864Z,71.06
2018-10-19T02:00:38.964Z,71.27
2018-10-19T02:03:08.189Z,70.92
2018-10-19T02:05:37.637Z,71.47
2018-10-19T02:08:07.539Z,71.76
2018-10-19T02:10:36.644Z,71.89
2018-10-19T02:13:06.453Z,71.96
2018-10-19T02:15:35.681Z,71.99
2018-10-19T02:18:05.042Z,72.17
2018-10-19T02:20:34.137Z,72.28
2018-10-19T02:23:03.274Z,72.93
2018-10-19T02:25:32.453Z,73.12
2018-10-19T02:28:01.527Z,73.24
2018-10-19T02:30:30.640Z,72.97
2018-10-19T02:32:59.809Z,73.24
2018-10-19T02:35:28.809Z,73.35
2018-10-19T02:37:57.918Z,73.22
2018-10-19T02:40:27.077Z,73.30
2018-10-19T02:42:56.141Z,73.08
2018-10-19T02:45:34.438Z,73.34
2018-10-19T02:48:04.350Z,73.16
2018-10-19T02:50:33.436Z,73.31
2018-10-19T02:53:02.527Z,73.01
2018-10-19T02:55:31.603Z,73.07
2018-10-19T02:58:00.661Z,73.16
2018-10-19T03:00:29.731Z,72.94
2018-10-19T03:02:58.841Z,73.08
2018-10-19T03:05:27.945Z,73.22
2018-10-19T03:07:57.058Z,73.61
2018-10-19T03:10:26.129Z,73.54
2018-10-19T03:12:55.213Z,73.92
2018-10-19T03:15:24.363Z,73.69
2018-10-19T03:17:53.489Z,73.80
2018-10-19T03:20:22.587Z,74.13
2018-10-19T03:22:51.681Z,74.14
2018-10-19T03:25:20.824Z,73.94
2018-10-19T03:27:49.908Z,74.12
2018-10-19T03:30:19.061Z,74.08
2018-10-19T03:32:48.107Z,74.44
2018-10-19T03:35:17.253Z,74.23
2018-10-19T03:37:46.258Z,74.60
2018-10-19T03:40:15.382Z,74.63
2018-10-19T03:42:44.498Z,74.87
2018-10-19T03:45:13.743Z,74.33
2018-10-19T03:47:42.699Z,74.72
2018-10-19T03:50:11.820Z,74.42
2018-10-19T03:52:40.946Z,74.28
2018-10-19T03:55:10.021Z,74.40
2018-10-19T03:57:39.136Z,74.45
2018-10-19T04:00:08.255Z,74.39
2018-10-19T04:02:37.409Z,74.48
2018-10-19T04:05:06.693Z,74.53
2018-10-19T04:07:35.801Z,74.51
2018-10-19T04:10:05.393Z,74.41
2018-10-19T04:12:34.465Z,74.67
2018-10-19T04:15:03.730Z,74.79
2018-10-19T04:17:32.769Z,74.49
2018-10-19T04:20:02.055Z,74.25
2018-10-19T04:22:31.120Z,74.62
2018-10-19T04:25:00.201Z,74.41
2018-10-19T04:27:29.330Z,74.83
2018-10-19T04:29:58.437Z,74.32
2018-10-19T04:32:27.523Z,74.33
2018-10-19T04:34:56.681Z,74.48
2018-10-19T04:37:25.719Z,74.61
2018-10-19T04:39:54.801Z,74.49
2018-10-19T04:42:23.970Z,74.36
2018-10-19T04:44:53.091Z,74.71
2018-10-19T04:47:22.185Z,74.80
2018-10-19T04:49:51.328Z,74.79
2018-10-19T04:52:20.454Z,74.95
2018-10-19T04:54:49.548Z,74.97
2018-10-19T04:57:18.828Z,75.17
2018-10-19T04:59:47.813Z,74.77
2018-10-19T05:02:16.965Z,74.83
2018-10-19T05:04:46.130Z,75.10
2018-10-19T05:07:15.181Z,74.71
2018-10-19T05:09:44.359Z,74.85
2018-10-19T05:12:13.460Z,74.80
2018-10-19T05:14:42.545Z,74.96
2018-10-19T05:17:11.717Z,74.94
2018-10-19T05:19:40.760Z,74.67
2018-10-19T05:22:09.859Z,74.74
2018-10-19T05:24:39.054Z,74.60
2018-10-19T05:27:08.125Z,74.97
2018-10-19T05:29:37.213Z,74.93
2018-10-19T05:32:06.336Z,74.91
2018-10-19T05:34:35.453Z,74.84
2018-10-19T05:37:04.901Z,75.31
2018-10-19T05:39:34.024Z,75.27
2018-10-19T05:42:03.112Z,75.04
2018-10-19T05:44:32.230Z,75.14
2018-10-19T05:47:01.360Z,75.33
2018-10-19T05:49:30.431Z,75.42
2018-10-19T05:52:06.185Z,75.06
2018-10-19T05:54:35.226Z,75.27
2018-10-19T05:57:04.560Z,75.23
2018-10-19T05:59:33.835Z,75.09
2018-10-19T06:02:02.984Z,74.95
2018-10-19T06:04:32.044Z,75.08
2018-10-19T06:07:01.157Z,74.70
2018-10-19T06:09:30.240Z,74.97
2018-10-19T06:11:59.307Z,74.61
2018-10-19T06:14:28.429Z,74.81
2018-10-19T06:16:57.528Z,74.76
2018-10-19T06:19:26.731Z,74.60
2018-10-19T06:21:55.824Z,74.29
2018-10-19T06:24:24.912Z,74.68
2018-10-19T06:26:54.033Z,74.40
2018-10-19T06:29:23.129Z,74.24
2018-10-19T06:31:52.284Z,74.59
2018-10-19T06:34:21.354Z,73.87
2018-10-19T06:36:50.471Z,73.88
2018-10-19T06:39:19.589Z,73.46
2018-10-19T06:41:48.724Z,72.97
2018-10-19T06:44:17.804Z,72.52
2018-10-19T06:46:46.984Z,71.96
2018-10-19T06:49:16.038Z,71.97
2018-10-19T06:51:45.152Z,71.41
2018-10-19T06:54:14.245Z,71.20
2018-10-19T06:56:43.440Z,70.66
2018-10-19T06:59:12.622Z,70.41
2018-10-19T07:01:41.640Z,69.56
2018-10-19T07:04:10.728Z,68.90
2018-10-19T07:06:39.862Z,67.96
2018-10-19T07:09:09.100Z,67.65
2018-10-19T07:11:38.168Z,67.53
2018-10-19T07:14:07.328Z,66.55
2018-10-19T07:16:36.391Z,66.02
2018-10-19T07:19:05.823Z,65.92
2018-10-19T07:21:34.901Z,65.70
2018-10-19T07:24:03.986Z,65.45
2018-10-19T07:26:33.148Z,64.86
2018-10-19T07:29:02.317Z,64.91
2018-10-19T07:31:31.357Z,64.45
2018-10-19T07:34:00.481Z,63.78
2018-10-19T07:36:29.590Z,63.77
2018-10-19T07:38:58.666Z,63.14
2018-10-19T07:41:27.838Z,62.73
2018-10-19T07:43:56.962Z,62.41
2018-10-19T07:46:26.064Z,62.39
2018-10-19T07:48:55.151Z,61.33
2018-10-19T07:51:24.274Z,61.44
2018-10-19T07:53:53.360Z,61.21
2018-10-19T07:56:22.863Z,60.67
2018-10-19T07:58:51.943Z,60.76
2018-10-19T08:01:21.055Z,60.31
2018-10-19T08:03:50.141Z,60.77
2018-10-19T08:06:19.230Z,59.54
2018-10-19T08:08:48.331Z,59.85
2018-10-19T08:11:17.532Z,59.10
2018-10-19T08:13:46.564Z,57.35
2018-10-19T08:16:15.671Z,56.19
2018-10-19T08:18:44.793Z,55.66
2018-10-19T08:21:14.013Z,55.85
2018-10-19T08:23:43.033Z,55.85
2018-10-19T08:26:12.206Z,55.87
2018-10-19T08:28:41.231Z,55.11
2018-10-19T08:31:10.336Z,54.69
2018-10-19T08:33:39.430Z,54.52
2018-10-19T08:36:08.526Z,54.72
2018-10-19T08:38:37.637Z,54.32
2018-10-19T08:41:06.769Z,55.57
2018-10-19T08:43:35.864Z,57.07
2018-10-19T08:46:10.326Z,57.09
2018-10-19T08:48:39.469Z,56.21
2018-10-19T08:51:09.042Z,56.92
2018-10-19T08:53:38.545Z,56.57
2018-10-19T08:56:07.535Z,55.77
2018-10-19T08:58:36.643Z,54.64
2018-10-19T09:01:05.950Z,47.67
2018-10-19T09:03:35.096Z,40.94
2018-10-19T09:06:04.220Z,39.07
2018-10-19T09:08:33.309Z,36.68
2018-10-19T09:11:02.481Z,36.80
2018-10-19T09:13:31.554Z,35.61
2018-10-19T09:16:00.683Z,34.98
2018-10-19T09:18:29.759Z,36.03
2018-10-19T09:20:58.916Z,36.42
2018-10-19T09:23:27.958Z,35.21
2018-10-19T09:25:57.053Z,34.00
2018-10-19T09:28:26.242Z,33.34
2018-10-19T09:30:55.445Z,34.49
2018-10-19T09:33:24.547Z,34.69
2018-10-19T09:35:53.738Z,36.51
2018-10-19T09:38:22.752Z,36.44
2018-10-19T09:40:51.881Z,35.72
2018-10-19T09:43:20.973Z,35.08
2018-10-19T09:45:50.105Z,36.38
2018-10-19T09:48:19.401Z,38.80
2018-10-19T09:50:48.523Z,39.43
2018-10-19T09:53:17.621Z,41.62
2018-10-19T09:55:46.687Z,43.17
2018-10-19T09:58:15.805Z,43.80
2018-10-19T10:00:50.031Z,45.26
2018-10-19T10:03:19.159Z,46.30
2018-10-19T10:05:48.251Z,46.74
2018-10-19T10:08:17.366Z,47.31
2018-10-19T10:10:46.603Z,46.34
2018-10-19T10:13:15.795Z,47.55
2018-10-19T10:15:44.899Z,47.34
2018-10-19T10:18:14.150Z,47.02
2018-10-19T10:20:43.270Z,48.01
2018-10-19T10:23:12.980Z,47.98
2018-10-19T10:25:42.042Z,47.95
2018-10-19T10:28:11.222Z,48.38
2018-10-19T10:30:40.328Z,47.88
2018-10-19T10:33:09.433Z,48.05
2018-10-19T10:35:38.665Z,47.03
2018-10-19T10:38:07.961Z,47.59
2018-10-19T10:40:37.129Z,47.84
2018-10-19T10:43:06.656Z,47.88
2018-10-19T10:45:35.745Z,47.34
2018-10-19T10:48:04.973Z,47.75
2018-10-19T10:50:34.075Z,47.64
2018-10-19T10:53:03.145Z,47.91
2018-10-19T10:55:32.256Z,47.43
2018-10-19T10:58:01.383Z,46.98
2018-10-19T11:00:30.445Z,46.49
2018-10-19T11:02:59.527Z,45.95
2018-10-19T11:05:28.670Z,46.28
2018-10-19T11:07:57.746Z,47.41
2018-10-19T11:10:27.101Z,47.10
2018-10-19T11:12:56.228Z,47.09
2018-10-19T11:15:25.337Z,47.59
2018-10-19T11:17:54.418Z,47.34
2018-10-19T11:20:23.523Z,46.65
2018-10-19T11:22:52.653Z,46.09
2018-10-19T11:25:21.724Z,45.87
2018-10-19T11:27:50.833Z,45.24
2018-10-19T11:30:19.922Z,44.00
2018-10-19T11:32:49.032Z,42.44
2018-10-19T11:35:18.167Z,42.94
2018-10-19T11:37:47.324Z,41.72
2018-10-19T11:40:29.999Z,42.57
2018-10-19T11:42:59.156Z,42.96
2018-10-19T11:45:29.622Z,43.68
2018-10-19T11:47:58.719Z,44.07
2018-10-19T11:50:27.811Z,43.38
2018-10-19T11:52:56.936Z,43.40
2018-10-19T11:55:26.057Z,43.20
2018-10-19T11:57:55.159Z,43.94
2018-10-19T12:00:24.257Z,44.05
2018-10-19T12:02:53.346Z,43.23
2018-10-19T12:05:22.470Z,43.73
2018-10-19T12:07:51.547Z,43.71
2018-10-19T12:10:20.728Z,43.55
2018-10-19T12:12:49.832Z,44.45
2018-10-19T12:15:19.071Z,43.01
2018-10-19T12:17:48.170Z,42.79
2018-10-19T12:20:18.389Z,43.39
2018-10-19T12:22:47.523Z,42.99
2018-10-19T12:25:17.210Z,42.86
2018-10-19T12:27:46.336Z,42.18
2018-10-19T12:30:15.447Z,42.03
2018-10-19T12:32:44.573Z,42.16
2018-10-19T12:35:14.630Z,41.91
2018-10-19T12:37:43.717Z,41.38
2018-10-19T12:40:13.101Z,41.81
2018-10-19T12:42:42.197Z,41.63
2018-10-19T12:46:39.056Z,41.32
2018-10-19T12:49:08.686Z,40.70
2018-10-19T12:51:38.057Z,40.55
2018-10-19T12:54:07.422Z,40.57
2018-10-19T12:56:36.467Z,41.00
2018-10-19T12:59:06.042Z,40.53
2018-10-19T13:01:35.378Z,40.53
2018-10-19T13:04:04.785Z,40.57
2018-10-19T13:06:33.887Z,40.76
2018-10-19T13:09:03.348Z,40.95
2018-10-19T13:11:32.401Z,40.92
2018-10-19T13:14:01.481Z,41.25
2018-10-19T13:16:30.578Z,40.85
2018-10-19T13:18:59.666Z,40.68
2018-10-19T13:21:28.751Z,40.76
2018-10-19T13:23:57.845Z,40.64
2018-10-19T13:26:26.981Z,40.01
2018-10-19T13:28:56.345Z,40.87
2018-10-19T13:31:25.543Z,40.49
2018-10-19T13:33:55.215Z,40.74
2018-10-19T13:36:24.843Z,40.58
2018-10-19T13:38:54.258Z,39.91
2018-10-19T13:41:23.344Z,40.10
2018-10-19T13:43:52.471Z,40.60
2018-10-19T13:46:21.557Z,40.81
2018-10-19T13:48:50.643Z,40.76
2018-10-19T13:51:19.739Z,40.29
2018-10-19T13:53:48.850Z,40.79
2018-10-19T13:56:17.943Z,40.70
2018-10-19T13:58:47.013Z,40.14
2018-10-19T14:01:16.108Z,41.02
2018-10-19T14:03:45.220Z,41.04
2018-10-19T14:06:14.314Z,40.84
2018-10-19T14:08:43.398Z,41.03
2018-10-19T14:11:12.593Z,40.62
2018-10-19T14:13:41.628Z,41.02
2018-10-19T14:16:10.695Z,41.75
2018-10-19T14:18:39.801Z,41.40
2018-10-19T14:21:08.921Z,41.94
2018-10-19T14:23:37.917Z,41.83
2018-10-19T14:26:06.994Z,41.96
2018-10-19T14:28:36.093Z,41.98
2018-10-19T14:31:05.219Z,42.53
2018-10-19T14:33:34.425Z,42.12
2018-10-19T14:36:03.393Z,42.22
2018-10-19T14:38:32.529Z,43.25
2018-10-19T14:41:01.681Z,43.33
2018-10-19T14:43:30.873Z,43.54
2018-10-19T14:46:00.056Z,43.25
2018-10-19T14:48:29.116Z,42.94
2018-10-19T14:50:58.320Z,42.90
2018-10-19T14:53:27.340Z,43.12
2018-10-19T14:55:56.451Z,43.46
2018-10-19T14:58:25.562Z,44.13
2018-10-19T15:00:54.635Z,44.18
2018-10-19T15:03:23.782Z,45.02
2018-10-19T15:05:52.863Z,45.05
2018-10-19T15:08:21.933Z,44.85
2018-10-19T15:10:51.153Z,45.04
2018-10-19T15:13:20.195Z,45.44
2018-10-19T15:15:49.300Z,45.62
2018-10-19T15:18:18.454Z,45.90
2018-10-19T15:20:47.514Z,46.28
2018-10-19T15:23:16.609Z,46.52
2018-10-19T15:25:45.701Z,46.68
2018-10-19T15:28:14.775Z,46.94
2018-10-19T15:30:43.901Z,50.28
2018-10-19T15:33:13.214Z,49.60
2018-10-19T15:35:42.233Z,47.31
2018-10-19T15:38:11.286Z,47.46
2018-10-19T15:40:40.361Z,47.88
2018-10-19T15:43:09.464Z,48.04
2018-10-19T15:45:38.570Z,48.52
2018-10-19T15:48:07.659Z,48.93
2018-10-19T15:50:37.317Z,49.01
2018-10-19T15:53:06.693Z,49.58
2018-10-19T15:55:35.808Z,49.56
2018-10-19T15:58:04.880Z,49.92
2018-10-19T16:00:34.095Z,50.22
2018-10-19T16:03:03.131Z,50.42
2018-10-19T16:05:32.262Z,50.49
2018-10-19T16:08:01.409Z,50.58
2018-10-19T16:10:30.518Z,50.92
2018-10-19T16:12:59.775Z,51.32
2018-10-19T16:15:28.889Z,51.06
2018-10-19T16:17:57.991Z,51.56
2018-10-19T16:20:27.046Z,51.65
2018-10-19T16:22:56.203Z,51.87
2018-10-19T16:25:25.278Z,51.93
2018-10-19T16:27:54.362Z,52.02
2018-10-19T16:30:23.477Z,52.13
2018-10-19T16:32:52.545Z,52.39
2018-10-19T16:35:21.665Z,52.23
2018-10-19T16:37:50.733Z,52.83
2018-10-19T16:40:19.813Z,52.88
2018-10-19T16:42:48.928Z,53.50
2018-10-19T16:45:18.075Z,53.72
2018-10-19T16:47:47.160Z,54.09
2018-10-19T16:50:16.281Z,54.83
2018-10-19T16:52:45.433Z,55.18
2018-10-19T16:55:14.524Z,55.50
2018-10-19T16:57:43.650Z,55.43
2018-10-19T17:00:12.795Z,55.89
2018-10-19T17:02:41.818Z,56.38
2018-10-19T17:05:11.006Z,56.71
2018-10-19T17:07:40.065Z,57.10
2018-10-19T17:10:09.423Z,57.22
2018-10-19T17:12:38.654Z,57.19
2018-10-19T17:15:07.772Z,57.27
2018-10-19T17:17:36.861Z,57.73
2018-10-19T17:20:06.498Z,57.63
2018-10-19T17:22:35.835Z,57.82
2018-10-19T17:25:06.757Z,58.07
2018-10-19T17:27:35.950Z,58.53
2018-10-19T17:30:07.034Z,58.33
2018-10-19T17:32:36.351Z,58.71
2018-10-19T17:35:05.833Z,58.92
2018-10-19T17:37:36.018Z,58.71
2018-10-19T17:40:06.517Z,59.26
2018-10-19T17:42:35.654Z,59.27
2018-10-19T17:45:05.281Z,59.54
2018-10-19T17:47:34.343Z,59.64
2018-10-19T17:50:03.463Z,59.76
2018-10-19T17:52:32.578Z,59.81
2018-10-19T17:55:01.669Z,59.73
2018-10-19T17:57:30.731Z,59.95
2018-10-19T17:59:59.839Z,60.04
2018-10-19T18:02:28.921Z,60.03
2018-10-19T18:05:01.797Z,60.08
2018-10-19T18:07:34.085Z,60.18
2018-10-19T18:10:08.167Z,60.67
2018-10-19T18:12:37.369Z,60.77
2018-10-19T18:15:12.856Z,60.91
2018-10-19T18:17:49.192Z,60.88
2018-10-19T18:20:20.825Z,61.10
2018-10-19T18:22:54.649Z,61.27
2018-10-19T18:25:23.822Z,61.33
2018-10-19T18:27:52.959Z,61.85
2018-10-19T18:30:22.022Z,62.16
2018-10-19T18:32:51.102Z,62.72
2018-10-19T18:35:21.393Z,62.53
2018-10-19T18:37:50.483Z,62.89
2018-10-19T18:40:19.553Z,63.11
2018-10-19T18:42:48.673Z,62.80
2018-10-19T18:45:17.772Z,62.92
2018-10-19T18:47:46.865Z,62.83
2018-10-19T18:50:16.068Z,63.20
2018-10-19T18:52:45.165Z,63.74
2018-10-19T18:55:14.329Z,63.96
2018-10-19T18:57:43.474Z,63.97
2018-10-19T19:00:12.977Z,64.07
2018-10-19T19:02:42.255Z,64.22
2018-10-19T19:05:12.372Z,64.10
2018-10-19T19:07:41.499Z,64.05
2018-10-19T19:10:12.798Z,63.87
2018-10-19T19:12:41.998Z,63.76
2018-10-19T19:15:11.942Z,64.08
2018-10-19T19:17:41.241Z,63.83
2018-10-19T19:20:15.602Z,64.06
2018-10-19T19:22:44.701Z,64.40
2018-10-19T19:25:19.182Z,64.33
2018-10-19T19:27:48.313Z,64.17
2018-10-19T19:30:17.489Z,64.49
2018-10-19T19:32:51.936Z,64.82
2018-10-19T19:35:21.084Z,64.64
2018-10-19T19:37:50.405Z,64.66
2018-10-19T19:40:19.560Z,64.86
2018-10-19T19:42:54.627Z,65.14
2018-10-19T19:45:23.802Z,65.24
2018-10-19T19:47:58.067Z,65.22
2018-10-19T19:50:27.158Z,65.47
2018-10-19T19:52:56.272Z,65.71
2018-10-19T19:55:25.551Z,65.41
2018-10-19T19:57:54.722Z,65.10
2018-10-19T20:00:23.818Z,64.99
2018-10-19T20:02:52.951Z,65.32
2018-10-19T20:05:22.084Z,65.72
2018-10-19T20:07:51.173Z,65.24
2018-10-19T20:10:20.280Z,65.83
2018-10-19T20:12:49.361Z,65.74
2018-10-19T20:15:18.497Z,65.84
2018-10-19T20:17:47.677Z,65.84
2018-10-19T20:20:16.866Z,65.36
2018-10-19T20:22:45.873Z,65.20
2018-10-19T20:25:14.951Z,65.22
2018-10-19T20:27:44.093Z,65.33
2018-10-19T20:30:13.969Z,65.36
2018-10-19T20:32:43.189Z,65.54
2018-10-19T20:35:12.272Z,65.15
2018-10-19T20:37:41.453Z,65.07
2018-10-19T20:40:10.563Z,65.01
2018-10-19T20:42:39.650Z,65.02
2018-10-19T20:45:08.793Z,64.94
2018-10-19T20:47:37.908Z,65.11
2018-10-19T20:50:06.999Z,65.58
2018-10-19T20:52:36.094Z,65.75
2018-10-19T20:55:05.542Z,65.79
2018-10-19T20:57:34.650Z,65.90
2018-10-19T21:00:03.714Z,65.31
2018-10-19T21:02:32.803Z,65.27
2018-10-19T21:05:01.948Z,65.32
2018-10-19T21:07:31.022Z,65.73
2018-10-19T21:10:01.855Z,66.19
2018-10-19T21:12:30.913Z,65.59
2018-10-19T21:14:59.989Z,65.31
2018-10-19T21:17:29.053Z,65.20
2018-10-19T21:19:58.203Z,65.18
2018-10-19T21:22:27.260Z,65.26
2018-10-19T21:24:56.319Z,65.26
2018-10-19T21:27:25.399Z,65.33
2018-10-19T21:29:54.553Z,64.42
2018-10-19T21:32:23.629Z,64.79
2018-10-19T21:34:52.939Z,64.43
2018-10-19T21:37:22.009Z,64.94
2018-10-19T21:39:51.133Z,64.80
2018-10-19T21:42:20.205Z,64.61
2018-10-19T21:44:49.291Z,64.51
2018-10-19T21:47:18.448Z,64.77
2018-10-19T21:49:47.561Z,64.65
2018-10-19T21:52:16.684Z,64.96
2018-10-19T21:54:45.783Z,65.01
2018-10-19T21:57:14.882Z,64.52
2018-10-19T21:59:44.008Z,64.18
2018-10-19T22:02:13.158Z,63.80
2018-10-19T22:04:42.362Z,63.85
2018-10-19T22:07:11.574Z,64.34
2018-10-19T22:09:40.631Z,64.47
2018-10-19T22:12:09.749Z,64.94
2018-10-19T22:14:38.845Z,65.06
2018-10-19T22:17:07.953Z,64.94
2018-10-19T22:19:37.143Z,65.53
2018-10-19T22:22:06.586Z,66.13
2018-10-19T22:24:35.649Z,66.20
2018-10-19T22:27:04.729Z,65.77
2018-10-19T22:29:33.823Z,66.22
2018-10-19T22:32:02.917Z,66.33
2018-10-19T22:34:32.042Z,66.57
2018-10-19T22:37:01.154Z,66.92
2018-10-19T22:39:30.263Z,67.26
2018-10-19T22:41:59.409Z,67.52
2018-10-19T22:44:28.523Z,67.38
2018-10-19T22:46:57.808Z,67.56
2018-10-19T22:49:27.007Z,67.55
2018-10-19T22:51:56.110Z,67.49
2018-10-19T22:54:25.220Z,67.42
2018-10-19T22:56:54.340Z,66.83
2018-10-19T22:59:23.477Z,66.95
2018-10-19T23:01:52.689Z,66.90
2018-10-19T23:04:21.784Z,66.84
2018-10-19T23:06:50.893Z,66.84
2018-10-19T23:09:20.013Z,66.99
2018-10-19T23:11:49.128Z,67.17
2018-10-19T23:14:18.246Z,67.18
2018-10-19T23:16:47.355Z,67.43
2018-10-19T23:19:16.651Z,67.53
2018-10-19T23:21:45.819Z,67.65
2018-10-19T23:24:14.890Z,68.07
2018-10-19T23:26:44.027Z,67.58
2018-10-19T23:29:13.199Z,67.72
2018-10-19T23:31:42.343Z,67.44
2018-10-19T23:34:11.308Z,67.41
2018-10-19T23:36:40.440Z,67.54
2018-10-19T23:39:11.270Z,67.84
2018-10-19T23:41:40.990Z,67.61
2018-10-19T23:44:10.488Z,66.82
2018-10-19T23:46:39.700Z,66.71
2018-10-19T23:49:09.210Z,66.01
2018-10-19T23:51:38.348Z,65.34
2018-10-19T23:54:07.494Z,65.45
2018-10-19T23:56:36.683Z,65.12
2018-10-19T23:59:06.359Z,65.58
